createdAt,value
2022-10-09T00:01:09.375Z,99559.59
2022-10-09T00:03:37.601Z,99554.88
2022-10-09T00:06:06.065Z,99556.13
2022-10-09T00:08:34.496Z,99552.75
2022-10-09T00:11:06.132Z,99561.50
2022-10-09T00:13:32.580Z,99564.09
2022-10-09T00:16:03.795Z,99556.50
2022-10-09T00:18:30.335Z,99561.41
2022-10-09T00:20:56.790Z,99563.03
2022-10-09T00:23:23.229Z,99557.34
2022-10-09T00:25:52.609Z,99556.41
2022-10-09T00:28:19.908Z,99554.28
2022-10-09T00:30:46.381Z,99555.25
2022-10-09T00:33:13.067Z,99561.56
2022-10-09T00:35:39.535Z,99554.44
2022-10-09T00:38:06.881Z,99557.03
2022-10-09T00:40:34.383Z,99558.22
2022-10-09T00:43:03.598Z,99552.22
2022-10-09T00:45:31.164Z,99551.88
2022-10-09T00:48:03.259Z,99554.78
2022-10-09T00:50:42.058Z,99552.38
2022-10-09T00:53:15.239Z,99551.25
2022-10-09T00:55:43.244Z,99552.19
2022-10-09T00:58:12.137Z,99547.66
2022-10-09T01:00:39.300Z,99544.28
2022-10-09T01:03:06.026Z,99546.69
2022-10-09T01:05:53.240Z,99540.09
2022-10-09T01:08:30.936Z,99539.78
2022-10-09T01:11:20.855Z,99543.16
2022-10-09T01:14:04.475Z,99553.84
2022-10-09T01:16:44.838Z,99542.69
2022-10-09T01:19:27.585Z,99534.44
2022-10-09T01:22:06.211Z,99544.00
2022-10-09T01:24:40.974Z,99534.94
2022-10-09T01:27:36.562Z,99529.44
2022-10-09T01:30:12.253Z,99536.88
2022-10-09T01:32:43.539Z,99527.00
2022-10-09T01:35:14.122Z,99533.78
2022-10-09T01:37:43.454Z,99526.34
2022-10-09T01:40:12.636Z,99527.47
2022-10-09T01:42:39.148Z,99526.84
2022-10-09T01:45:06.141Z,99528.94
2022-10-09T01:47:32.854Z,99527.81
2022-10-09T01:50:05.855Z,99524.75
2022-10-09T01:52:54.438Z,99519.25
2022-10-09T01:55:45.260Z,99515.53
2022-10-09T01:58:30.782Z,99516.97
2022-10-09T02:01:02.777Z,99518.44
2022-10-09T02:03:32.082Z,99516.97
2022-10-09T02:06:01.235Z,99510.03
2022-10-09T02:08:29.998Z,99503.06
2022-10-09T02:11:00.536Z,99506.97
2022-10-09T02:13:27.757Z,99503.06
2022-10-09T02:16:19.834Z,99502.06
2022-10-09T02:18:55.988Z,99502.84
2022-10-09T02:21:28.932Z,99494.91
2022-10-09T02:23:57.958Z,99502.50
2022-10-09T02:26:25.007Z,99497.31
2022-10-09T02:28:54.415Z,99501.22
2022-10-09T02:31:28.205Z,99503.13
2022-10-09T02:33:59.428Z,99493.72
2022-10-09T02:36:29.115Z,99495.03
2022-10-09T02:38:56.300Z,99498.88
2022-10-09T02:41:23.900Z,99497.25
2022-10-09T02:43:50.746Z,99500.13
2022-10-09T02:46:17.532Z,99501.25
2022-10-09T02:48:44.412Z,99495.59
2022-10-09T02:51:11.638Z,99489.31
2022-10-09T02:53:38.174Z,99493.47
2022-10-09T02:56:05.041Z,99496.50
2022-10-09T02:58:33.325Z,99492.63
2022-10-09T03:01:00.157Z,99503.72
2022-10-09T03:03:26.919Z,99508.41
2022-10-09T03:06:11.596Z,99496.03
2022-10-09T03:08:40.529Z,99506.50
2022-10-09T03:11:07.309Z,99510.13
2022-10-09T03:13:34.165Z,99512.00
2022-10-09T03:16:12.080Z,99509.34
2022-10-09T03:18:39.172Z,99511.50
2022-10-09T03:21:07.469Z,99514.88
2022-10-09T03:23:34.895Z,99512.91
2022-10-09T03:26:05.097Z,99510.94
2022-10-09T03:28:31.881Z,99511.75
2022-10-09T03:30:58.448Z,99519.47
2022-10-09T03:33:24.925Z,99514.38
2022-10-09T03:35:51.510Z,99518.19
2022-10-09T03:38:18.110Z,99516.44
2022-10-09T03:40:46.996Z,99514.91
2022-10-09T03:43:13.541Z,99513.66
2022-10-09T03:45:41.285Z,99517.69
2022-10-09T03:48:09.325Z,99518.94
2022-10-09T03:50:37.781Z,99522.81
2022-10-09T03:53:04.985Z,99520.16
2022-10-09T03:55:31.633Z,99512.72
2022-10-09T03:57:58.520Z,99518.97
2022-10-09T04:00:25.176Z,99526.22
2022-10-09T04:02:52.494Z,99524.44
2022-10-09T04:05:19.567Z,99522.00
2022-10-09T04:07:46.121Z,99519.41
2022-10-09T04:10:13.027Z,99511.38
2022-10-09T04:12:39.616Z,99516.53
2022-10-09T04:15:06.615Z,99517.28
2022-10-09T04:17:33.198Z,99510.94
2022-10-09T04:19:59.635Z,99512.56
2022-10-09T04:22:26.233Z,99510.44
2022-10-09T04:24:52.631Z,99516.91
2022-10-09T04:27:19.370Z,99511.38
2022-10-09T04:29:45.860Z,99516.69
2022-10-09T04:32:12.288Z,99511.84
2022-10-09T04:34:38.806Z,99503.56
2022-10-09T04:37:05.292Z,99507.25
2022-10-09T04:39:31.744Z,99503.38
2022-10-09T04:41:58.204Z,99501.72
2022-10-09T04:44:24.688Z,99496.06
2022-10-09T04:46:51.726Z,99500.47
2022-10-09T04:49:18.604Z,99503.44
2022-10-09T04:51:45.229Z,99500.56
2022-10-09T04:54:12.012Z,99503.44
2022-10-09T04:56:39.285Z,99502.63
2022-10-09T04:59:05.742Z,99509.81
2022-10-09T05:04:13.205Z,99507.34
2022-10-09T05:06:39.745Z,99510.22
2022-10-09T05:09:06.232Z,99499.69
2022-10-09T05:11:32.695Z,99509.47
2022-10-09T05:13:59.301Z,99511.09
2022-10-09T05:16:29.292Z,99515.72
2022-10-09T05:18:57.922Z,99519.53
2022-10-09T05:21:27.644Z,99518.81
2022-10-09T05:23:55.320Z,99520.03
2022-10-09T05:26:23.368Z,99519.09
2022-10-09T05:28:50.276Z,99522.25
2022-10-09T05:31:28.926Z,99524.00
2022-10-09T05:33:58.397Z,99525.66
2022-10-09T05:36:24.982Z,99525.09
2022-10-09T05:38:51.448Z,99531.75
2022-10-09T05:41:19.473Z,99528.22
2022-10-09T05:43:47.919Z,99536.31
2022-10-09T05:46:15.771Z,99534.03
2022-10-09T05:48:45.502Z,99539.44
2022-10-09T05:51:15.183Z,99539.19
2022-10-09T05:53:43.053Z,99538.75
2022-10-09T05:56:20.717Z,99542.44
2022-10-09T05:58:58.193Z,99539.72
2022-10-09T06:01:26.989Z,99542.56
2022-10-09T06:03:59.041Z,99539.56
2022-10-09T06:06:31.385Z,99533.59
2022-10-09T06:08:58.615Z,99530.59
2022-10-09T06:11:33.346Z,99532.88
2022-10-09T06:14:01.511Z,99533.25
2022-10-09T06:16:31.729Z,99535.09
2022-10-09T06:18:58.678Z,99535.09
2022-10-09T06:21:26.442Z,99537.53
2022-10-09T06:23:55.287Z,99533.19
2022-10-09T06:26:25.409Z,99544.66
2022-10-09T06:28:53.281Z,99536.69
2022-10-09T06:31:22.936Z,99541.56
2022-10-09T06:33:51.279Z,99540.03
2022-10-09T06:36:20.211Z,99538.75
2022-10-09T06:38:47.489Z,99539.22
2022-10-09T06:41:17.968Z,99547.84
2022-10-09T06:43:49.974Z,99542.78
2022-10-09T06:46:17.454Z,99542.91
2022-10-09T06:48:44.234Z,99543.16
2022-10-09T06:51:19.059Z,99539.75
2022-10-09T06:53:48.439Z,99545.22
2022-10-09T06:56:18.749Z,99543.66
2022-10-09T06:58:45.731Z,99542.31
2022-10-09T07:01:27.244Z,99542.78
2022-10-09T07:03:56.527Z,99546.38
2022-10-09T07:06:29.542Z,99544.81
2022-10-09T07:09:03.786Z,99543.94
2022-10-09T07:11:36.755Z,99552.97
2022-10-09T07:14:06.114Z,99545.09
2022-10-09T07:16:35.939Z,99544.50
2022-10-09T07:19:06.463Z,99549.66
2022-10-09T07:21:37.258Z,99550.06
2022-10-09T07:24:05.092Z,99542.22
2022-10-09T07:26:34.955Z,99540.34
2022-10-09T07:29:02.596Z,99542.31
2022-10-09T07:31:29.291Z,99545.66
2022-10-09T07:33:58.612Z,99540.56
2022-10-09T07:36:28.422Z,99549.41
2022-10-09T07:38:58.515Z,99556.22
2022-10-09T07:41:28.985Z,99547.69
2022-10-09T07:43:58.080Z,99549.63
2022-10-09T07:46:30.806Z,99548.22
2022-10-09T07:48:59.742Z,99543.66
2022-10-09T07:51:28.926Z,99542.72
2022-10-09T07:53:59.267Z,99546.66
2022-10-09T07:56:30.159Z,99539.22
2022-10-09T07:59:00.222Z,99535.88
2022-10-09T08:01:33.983Z,99537.84
2022-10-09T08:04:02.094Z,99530.72
2022-10-09T08:06:28.963Z,99531.19
2022-10-09T08:09:00.404Z,99525.66
2022-10-09T08:11:29.173Z,99528.31
2022-10-09T08:14:01.406Z,99527.72
2022-10-09T08:16:31.901Z,99524.50
2022-10-09T08:19:00.377Z,99528.13
2022-10-09T08:21:30.034Z,99514.97
2022-10-09T08:23:58.079Z,99514.38
2022-10-09T08:26:26.089Z,99509.72
2022-10-09T08:29:01.039Z,99502.56
2022-10-09T08:31:28.774Z,99506.50
2022-10-09T08:34:00.797Z,99498.97
2022-10-09T08:36:31.674Z,99488.47
2022-10-09T08:38:58.842Z,99498.69
2022-10-09T08:41:54.239Z,99489.03
2022-10-09T08:44:40.889Z,99494.91
2022-10-09T08:47:26.292Z,99491.31
2022-10-09T08:50:11.334Z,99491.75
2022-10-09T08:53:00.995Z,99488.97
2022-10-09T08:55:50.604Z,99479.66
2022-10-09T08:58:21.379Z,99478.72
2022-10-09T09:01:07.873Z,99468.94
2022-10-09T09:04:04.573Z,99466.31
2022-10-09T09:06:48.213Z,99455.41
2022-10-09T09:09:27.892Z,99458.34
2022-10-09T09:12:12.712Z,99454.28
2022-10-09T09:15:13.369Z,99453.66
2022-10-09T09:18:17.449Z,99453.00
2022-10-09T09:20:55.800Z,99449.72
2022-10-09T09:23:38.753Z,99457.50
2022-10-09T09:26:13.757Z,99456.81
2022-10-09T09:28:44.048Z,99450.34
2022-10-09T09:31:19.485Z,99454.09
2022-10-09T09:34:13.608Z,99453.16
2022-10-09T09:37:09.847Z,99445.56
2022-10-09T09:40:31.400Z,99441.69
2022-10-09T09:42:35.629Z,99445.91
2022-10-09T09:45:15.605Z,99440.94
2022-10-09T09:47:55.989Z,99439.41
2022-10-09T09:50:50.572Z,99444.16
2022-10-09T09:53:43.979Z,99437.19
2022-10-09T09:56:11.205Z,99435.91
2022-10-09T09:58:49.916Z,99441.16
2022-10-09T10:01:28.193Z,99432.53
2022-10-09T10:03:58.047Z,99430.59
2022-10-09T10:06:47.708Z,99425.56
2022-10-09T10:09:19.373Z,99419.69
2022-10-09T10:11:59.712Z,99420.63
2022-10-09T10:14:27.505Z,99409.28
2022-10-09T10:16:58.850Z,99410.34
2022-10-09T10:19:46.151Z,99404.59
2022-10-09T10:22:29.667Z,99407.00
2022-10-09T10:25:00.150Z,99409.09
2022-10-09T10:27:39.632Z,99388.28
2022-10-09T10:30:15.937Z,99392.44
2022-10-09T10:33:16.307Z,99393.38
2022-10-09T10:35:44.617Z,99388.94
2022-10-09T10:38:19.952Z,99387.34
2022-10-09T10:40:56.788Z,99378.81
2022-10-09T10:43:33.548Z,99374.69
2022-10-09T10:46:11.544Z,99378.44
2022-10-09T10:48:42.403Z,99371.25
2022-10-09T10:51:31.907Z,99368.75
2022-10-09T10:54:32.267Z,99356.03
2022-10-09T10:57:45.873Z,99353.72
2022-10-09T11:00:15.912Z,99352.78
2022-10-09T11:02:48.546Z,99354.06
2022-10-09T11:05:28.221Z,99346.06
2022-10-09T11:08:08.394Z,99352.66
2022-10-09T11:11:02.155Z,99339.47
2022-10-09T11:13:46.929Z,99336.94
2022-10-09T11:16:36.735Z,99336.69
2022-10-09T11:19:16.136Z,99333.31
2022-10-09T11:22:18.777Z,99329.41
2022-10-09T11:25:02.438Z,99316.09
2022-10-09T11:27:47.957Z,99316.38
2022-10-09T11:30:19.873Z,99316.81
2022-10-09T11:33:18.701Z,99314.06
2022-10-09T11:36:04.247Z,99304.19
2022-10-09T11:38:44.077Z,99300.63
2022-10-09T11:41:11.735Z,99296.44
2022-10-09T11:43:50.155Z,99292.81
2022-10-09T11:46:43.290Z,99293.94
2022-10-09T11:49:12.698Z,99284.06
2022-10-09T11:51:54.026Z,99276.50
2022-10-09T11:54:27.315Z,99284.31
2022-10-09T11:57:06.017Z,99270.25
2022-10-09T11:59:41.949Z,99268.00
2022-10-09T12:02:40.488Z,99269.44
2022-10-09T12:05:34.823Z,99271.81
2022-10-09T12:08:25.055Z,99261.84
2022-10-09T12:10:55.860Z,99251.44
2022-10-09T12:13:43.444Z,99255.72
2022-10-09T12:16:50.835Z,99250.53
2022-10-09T12:19:25.094Z,99253.69
2022-10-09T12:22:13.073Z,99241.56
2022-10-09T12:24:45.410Z,99234.13
2022-10-09T12:27:20.843Z,99229.41
2022-10-09T12:29:56.781Z,99223.97
2022-10-09T12:32:36.055Z,99224.38
2022-10-09T12:35:20.011Z,99207.66
2022-10-09T12:37:48.769Z,99219.53
2022-10-09T12:40:24.511Z,99210.53
2022-10-09T12:42:53.652Z,99211.78
2022-10-09T12:45:24.916Z,99200.88
2022-10-09T12:47:53.980Z,99205.28
2022-10-09T12:50:28.262Z,99195.63
2022-10-09T12:52:58.481Z,99190.53
2022-10-09T12:55:32.459Z,99192.72
2022-10-09T12:58:06.265Z,99186.91
2022-10-09T13:00:34.058Z,99179.81
2022-10-09T13:03:02.736Z,99171.34
2022-10-09T13:05:46.141Z,99174.00
2022-10-09T13:08:32.404Z,99170.13
2022-10-09T13:11:20.565Z,99157.94
2022-10-09T13:14:03.772Z,99159.16
2022-10-09T13:16:50.157Z,99156.84
2022-10-09T13:19:29.093Z,99151.03
2022-10-09T13:22:06.454Z,99150.09
2022-10-09T13:27:29.338Z,99149.06
2022-10-09T13:29:56.808Z,99141.06
2022-10-09T13:32:24.692Z,99129.47
2022-10-09T13:34:55.065Z,99146.91
2022-10-09T13:37:25.280Z,99134.72
2022-10-09T13:39:59.485Z,99139.00
2022-10-09T13:42:32.504Z,99136.84
2022-10-09T13:44:59.223Z,99129.22
2022-10-09T13:47:28.111Z,99139.31
2022-10-09T13:49:54.972Z,99123.84
2022-10-09T13:52:28.520Z,99124.16
2022-10-09T13:54:55.748Z,99118.25
2022-10-09T13:57:34.437Z,99113.03
2022-10-09T14:00:07.168Z,99109.84
2022-10-09T14:02:38.382Z,99113.78
2022-10-09T14:05:05.563Z,99108.91
2022-10-09T14:07:32.197Z,99101.88
2022-10-09T14:09:58.793Z,99101.88
2022-10-09T14:12:27.716Z,99098.47
2022-10-09T14:14:57.118Z,99094.97
2022-10-09T14:17:23.809Z,99092.56
2022-10-09T14:19:50.419Z,99085.22
2022-10-09T14:22:17.354Z,99082.66
2022-10-09T14:24:57.075Z,99081.91
2022-10-09T14:27:25.829Z,99080.13
2022-10-09T14:29:57.406Z,99075.72
2022-10-09T14:32:24.579Z,99076.84
2022-10-09T14:34:54.203Z,99068.31
2022-10-09T14:37:40.013Z,99072.22
2022-10-09T14:40:08.211Z,99066.22
2022-10-09T14:42:39.317Z,99066.47
2022-10-09T14:45:07.312Z,99065.69
2022-10-09T14:47:36.113Z,99062.81
2022-10-09T14:50:02.745Z,99061.16
2022-10-09T14:52:29.290Z,99064.66
2022-10-09T14:54:56.832Z,99064.72
2022-10-09T14:57:35.748Z,99060.97
2022-10-09T15:00:07.809Z,99068.06
2022-10-09T15:02:34.672Z,99048.47
2022-10-09T15:05:15.101Z,99053.72
2022-10-09T15:07:44.189Z,99052.94
2022-10-09T15:10:10.641Z,99045.22
2022-10-09T15:12:46.406Z,99043.31
2022-10-09T15:15:16.330Z,99049.81
2022-10-09T15:17:45.531Z,99041.84
2022-10-09T15:20:13.558Z,99048.72
2022-10-09T15:22:40.342Z,99048.94
2022-10-09T15:25:08.379Z,99032.91
2022-10-09T15:27:43.260Z,99038.13
2022-10-09T15:30:10.702Z,99035.19
2022-10-09T15:32:39.771Z,99034.69
2022-10-09T15:35:07.244Z,99020.41
2022-10-09T15:37:34.094Z,99025.38
2022-10-09T15:40:00.784Z,99025.97
2022-10-09T15:42:27.372Z,99022.84
2022-10-09T15:44:54.060Z,99021.44
2022-10-09T15:47:49.511Z,99024.22
2022-10-09T15:50:11.042Z,99021.75
2022-10-09T15:52:40.174Z,99014.03
2022-10-09T15:55:07.465Z,99023.84
2022-10-09T15:57:34.208Z,99023.75
2022-10-09T16:00:03.054Z,99019.34
2022-10-09T16:02:32.115Z,99010.50
2022-10-09T16:04:59.745Z,99016.69
2022-10-09T16:07:28.735Z,99014.66
2022-10-09T16:09:55.378Z,99013.19
2022-10-09T16:12:24.580Z,99013.56
2022-10-09T16:14:57.554Z,99014.88
2022-10-09T16:17:24.202Z,99020.19
2022-10-09T16:19:50.919Z,99016.53
2022-10-09T16:22:35.125Z,99017.13
2022-10-09T16:25:04.205Z,99011.00
2022-10-09T16:27:34.566Z,99014.75
2022-10-09T16:30:01.436Z,99021.84
2022-10-09T16:32:30.751Z,99017.63
2022-10-09T16:35:02.864Z,99017.03
2022-10-09T16:37:32.681Z,99012.00
2022-10-09T16:40:02.113Z,99013.38
2022-10-09T16:42:28.743Z,99002.97
2022-10-09T16:44:55.384Z,99008.53
2022-10-09T16:47:22.090Z,99009.25
2022-10-09T16:50:01.465Z,99016.84
2022-10-09T16:52:28.493Z,99018.78
2022-10-09T16:54:59.547Z,99025.81
2022-10-09T16:57:27.004Z,99028.41
2022-10-09T16:59:54.981Z,99032.91
2022-10-09T17:02:24.386Z,99029.97
2022-10-09T17:04:52.415Z,99027.06
2022-10-09T17:07:24.946Z,99020.91
2022-10-09T17:09:55.128Z,99016.09
2022-10-09T17:12:24.117Z,99015.69
2022-10-09T17:14:53.918Z,99011.75
2022-10-09T17:17:22.936Z,99014.88
2022-10-09T17:22:23.577Z,99010.22
2022-10-09T17:25:02.958Z,99004.84
2022-10-09T17:27:29.585Z,99016.97
2022-10-09T17:30:02.323Z,99009.03
2022-10-09T17:32:32.035Z,99015.94
2022-10-09T17:35:03.106Z,99016.56
2022-10-09T17:37:32.356Z,99007.34
2022-10-09T17:40:01.649Z,99019.47
2022-10-09T17:42:28.368Z,99009.88
2022-10-09T17:44:57.173Z,99013.13
2022-10-09T17:47:41.355Z,99010.00
2022-10-09T17:50:09.065Z,99015.50
2022-10-09T17:52:35.788Z,99015.31
2022-10-09T17:55:09.868Z,99018.00
2022-10-09T17:57:36.606Z,99009.75
2022-10-09T18:00:03.875Z,99007.38
2022-10-09T18:02:30.623Z,99009.66
2022-10-09T18:04:58.125Z,99003.91
2022-10-09T18:07:25.375Z,99006.72
2022-10-09T18:09:55.177Z,99006.63
2022-10-09T18:12:21.851Z,99002.84
2022-10-09T18:14:54.778Z,98998.19
2022-10-09T18:17:21.633Z,98996.84
2022-10-09T18:19:48.436Z,98997.72
2022-10-09T18:22:15.054Z,98998.38
2022-10-09T18:24:49.337Z,98995.09
2022-10-09T18:27:17.017Z,98992.84
2022-10-09T18:29:43.882Z,98994.22
2022-10-09T18:32:13.292Z,98988.41
2022-10-09T18:34:46.377Z,98982.41
2022-10-09T18:37:13.290Z,98979.81
2022-10-09T18:39:40.038Z,98978.47
2022-10-09T18:42:09.784Z,98977.91
2022-10-09T18:44:42.531Z,98971.31
2022-10-09T18:47:14.605Z,98962.09
2022-10-09T18:49:45.999Z,98961.53
2022-10-09T18:52:14.043Z,98966.16
2022-10-09T18:54:42.239Z,98962.94
2022-10-09T18:57:12.628Z,98963.53
2022-10-09T18:59:40.388Z,98960.91
2022-10-09T19:02:09.065Z,98959.31
2022-10-09T19:04:35.742Z,98956.69
2022-10-09T19:07:02.465Z,98954.31
2022-10-09T19:09:48.333Z,98955.94
2022-10-09T19:12:19.937Z,98956.56
2022-10-09T19:14:47.332Z,98956.59
2022-10-09T19:17:14.470Z,98955.19
2022-10-09T19:19:41.760Z,98954.19
2022-10-09T19:22:15.208Z,98947.19
2022-10-09T19:24:43.836Z,98949.78
2022-10-09T19:27:13.871Z,98943.19
2022-10-09T19:29:53.439Z,98941.59
2022-10-09T19:32:45.241Z,98938.56
2022-10-09T19:35:16.466Z,98941.81
2022-10-09T19:37:43.116Z,98937.00
2022-10-09T19:40:11.286Z,98925.59
2022-10-09T19:42:37.904Z,98921.59
2022-10-09T19:45:04.762Z,98923.63
2022-10-09T19:47:31.477Z,98926.41
2022-10-09T19:50:05.286Z,98918.81
2022-10-09T19:52:32.053Z,98920.41
2022-10-09T19:55:01.065Z,98918.63
2022-10-09T19:57:29.819Z,98925.25
2022-10-09T20:00:03.289Z,98908.25
2022-10-09T20:02:31.383Z,98916.06
2022-10-09T20:04:59.514Z,98919.44
2022-10-09T20:07:26.218Z,98916.28
2022-10-09T20:09:52.940Z,98921.47
2022-10-09T20:12:19.844Z,98916.25
2022-10-09T20:14:46.604Z,98905.41
2022-10-09T20:17:13.216Z,98907.41
2022-10-09T20:19:43.494Z,98908.44
2022-10-09T20:22:13.635Z,98911.22
2022-10-09T20:24:40.539Z,98915.41
2022-10-09T20:27:07.319Z,98913.78
2022-10-09T20:29:35.383Z,98913.75
2022-10-09T20:32:01.923Z,98910.34
2022-10-09T20:34:39.223Z,98906.53
2022-10-09T20:37:08.651Z,98904.50
2022-10-09T20:39:35.230Z,98906.91
2022-10-09T20:42:01.777Z,98902.50
2022-10-09T20:44:28.548Z,98895.69
2022-10-09T20:47:02.726Z,98898.09
2022-10-09T20:49:29.390Z,98896.06
2022-10-09T20:51:56.902Z,98893.88
2022-10-09T20:54:26.106Z,98901.47
2022-10-09T20:56:52.750Z,98894.91
2022-10-09T20:59:19.362Z,98895.69
2022-10-09T21:01:46.042Z,98888.50
2022-10-09T21:04:12.771Z,98878.47
2022-10-09T21:06:41.820Z,98884.06
2022-10-09T21:09:09.958Z,98879.50
2022-10-09T21:11:38.098Z,98876.06
2022-10-09T21:14:04.902Z,98885.09
2022-10-09T21:16:31.620Z,98876.47
2022-10-09T21:19:02.986Z,98869.47
2022-10-09T21:21:30.409Z,98864.09
2022-10-09T21:23:58.801Z,98864.28
2022-10-09T21:26:26.863Z,98865.91
2022-10-09T21:28:58.998Z,98864.09
2022-10-09T21:31:28.409Z,98860.91
2022-10-09T21:33:56.357Z,98857.50
2022-10-09T21:36:31.683Z,98859.13
2022-10-09T21:38:58.402Z,98866.56
2022-10-09T21:41:27.479Z,98867.16
2022-10-09T21:43:53.975Z,98863.31
2022-10-09T21:46:20.815Z,98867.94
2022-10-09T21:48:47.524Z,98866.16
2022-10-09T21:51:14.085Z,98870.94
2022-10-09T21:53:40.642Z,98870.94
2022-10-09T21:56:07.437Z,98865.34
2022-10-09T21:58:34.115Z,98864.94
2022-10-09T22:01:01.986Z,98862.94
2022-10-09T22:03:32.101Z,98862.53
2022-10-09T22:05:58.660Z,98869.34
2022-10-09T22:08:26.086Z,98867.94
2022-10-09T22:10:52.879Z,98858.31
2022-10-09T22:13:24.502Z,98857.13
2022-10-09T22:15:51.567Z,98860.31
2022-10-09T22:18:19.521Z,98856.09
2022-10-09T22:20:49.121Z,98853.50
2022-10-09T22:23:20.398Z,98856.91
2022-10-09T22:26:05.411Z,98856.75
2022-10-09T22:28:33.142Z,98849.72
2022-10-09T22:31:23.269Z,98860.13
2022-10-09T22:33:56.256Z,98856.13
2022-10-09T22:36:26.481Z,98852.56
2022-10-09T22:38:58.207Z,98847.69
2022-10-09T22:41:26.334Z,98848.50
2022-10-09T22:43:55.106Z,98848.09
2022-10-09T22:46:27.835Z,98843.31
2022-10-09T22:48:55.329Z,98840.72
2022-10-09T22:51:23.515Z,98841.72
2022-10-09T22:53:50.275Z,98840.72
2022-10-09T22:56:21.834Z,98843.56
2022-10-09T22:58:55.799Z,98841.34
2022-10-09T23:01:27.263Z,98840.75
2022-10-09T23:03:53.743Z,98831.72
2022-10-09T23:06:20.271Z,98836.94
2022-10-09T23:08:48.420Z,98841.34
2022-10-09T23:11:16.461Z,98838.94
2022-10-09T23:13:45.184Z,98838.56
2022-10-09T23:16:14.061Z,98841.00
2022-10-09T23:18:41.217Z,98834.19
2022-10-09T23:21:16.654Z,98838.41
2022-10-09T23:23:46.826Z,98832.59
2022-10-09T23:26:19.578Z,98839.19
2022-10-09T23:29:02.409Z,98839.81
2022-10-09T23:31:29.651Z,98835.41
2022-10-09T23:33:57.170Z,98836.59
2022-10-09T23:36:27.156Z,98829.41
2022-10-09T23:38:54.012Z,98834.59
2022-10-09T23:41:23.443Z,98827.59
2022-10-09T23:43:54.111Z,98829.19
2022-10-09T23:46:25.764Z,98829.38
2022-10-09T23:48:55.340Z,98830.19
2022-10-09T23:51:23.373Z,98822.94
2022-10-09T23:53:50.086Z,98825.97
2022-10-09T23:56:24.340Z,98823.78
2022-10-09T23:58:52.107Z,98823.00
